createdAt,value
2023-05-20T00:01:43.116Z,97441.75
2023-05-20T00:04:10.102Z,97440.53
2023-05-20T00:06:36.853Z,97443.97
2023-05-20T00:09:03.797Z,97442.06
2023-05-20T00:11:31.452Z,97454.28
2023-05-20T00:13:58.225Z,97442.69
2023-05-20T00:16:24.928Z,97443.59
2023-05-20T00:18:51.596Z,97438.31
2023-05-20T00:21:18.277Z,97444.91
2023-05-20T00:23:44.931Z,97442.38
2023-05-20T00:26:11.597Z,97445.84
2023-05-20T00:28:38.275Z,97449.16
2023-05-20T00:31:05.160Z,97439.91
2023-05-20T00:33:31.811Z,97439.28
2023-05-20T00:35:58.477Z,97439.91
2023-05-20T00:38:25.108Z,97448.38
2023-05-20T00:40:51.805Z,97446.97
2023-05-20T00:43:20.515Z,97465.94
2023-05-20T00:45:47.958Z,97455.63
2023-05-20T00:48:14.889Z,97459.06
2023-05-20T00:50:41.574Z,97463.78
2023-05-20T00:53:09.086Z,97460.47
2023-05-20T00:55:36.209Z,97464.09
2023-05-20T00:58:03.069Z,97457.84
2023-05-20T01:00:29.745Z,97455.03
2023-05-20T01:02:57.254Z,97454.44
2023-05-20T01:05:24.165Z,97445.66
2023-05-20T01:07:51.263Z,97454.25
2023-05-20T01:10:18.336Z,97455.53
2023-05-20T01:12:56.299Z,97458.47
2023-05-20T01:15:26.804Z,97462.09
2023-05-20T01:18:01.889Z,97464.13
2023-05-20T01:20:32.718Z,97471.50
2023-05-20T01:22:59.616Z,97465.69
2023-05-20T01:25:26.572Z,97450.94
2023-05-20T01:27:55.308Z,97455.03
2023-05-20T01:30:22.428Z,97455.03
2023-05-20T01:32:52.661Z,97454.72
2023-05-20T01:35:23.086Z,97443.09
2023-05-20T01:37:52.389Z,97446.66
2023-05-20T01:40:19.368Z,97441.78
2023-05-20T01:42:53.047Z,97452.09
2023-05-20T01:45:20.316Z,97442.34
2023-05-20T01:47:47.405Z,97425.09
2023-05-20T01:50:14.158Z,97437.03
2023-05-20T01:52:40.891Z,97419.78
2023-05-20T01:55:07.925Z,97437.03
2023-05-20T01:57:34.609Z,97436.72
2023-05-20T02:00:01.381Z,97433.13
2023-05-20T02:02:28.185Z,97426.84
2023-05-20T02:04:55.074Z,97426.34
2023-05-20T02:07:21.820Z,97428.44
2023-05-20T02:09:48.476Z,97425.91
2023-05-20T02:12:18.073Z,97424.25
2023-05-20T02:14:49.396Z,97420.38
2023-05-20T02:17:17.368Z,97425.06
2023-05-20T02:19:47.465Z,97424.75
2023-05-20T02:22:14.907Z,97432.88
2023-05-20T02:24:43.293Z,97422.88
2023-05-20T02:27:10.144Z,97431.59
2023-05-20T02:29:37.135Z,97423.78
2023-05-20T02:32:03.978Z,97425.84
2023-05-20T02:34:32.180Z,97422.88
2023-05-20T02:36:58.944Z,97424.41
2023-05-20T02:39:25.742Z,97413.09
2023-05-20T02:41:52.402Z,97413.69
2023-05-20T02:44:19.061Z,97406.72
2023-05-20T02:46:45.748Z,97409.78
2023-05-20T02:49:12.450Z,97417.59
2023-05-20T02:51:40.422Z,97409.13
2023-05-20T02:54:07.052Z,97432.91
2023-05-20T02:56:34.442Z,97442.31
2023-05-20T02:59:01.130Z,97448.19
2023-05-20T03:01:29.217Z,97441.44
2023-05-20T03:03:56.026Z,97436.13
2023-05-20T03:06:22.892Z,97443.84
2023-05-20T03:08:49.586Z,97443.84
2023-05-20T03:11:16.305Z,97452.16
2023-05-20T03:13:43.003Z,97451.84
2023-05-20T03:16:09.829Z,97457.31
2023-05-20T03:18:36.515Z,97458.63
2023-05-20T03:21:03.175Z,97460.38
2023-05-20T03:23:29.815Z,97465.94
2023-05-20T03:25:56.536Z,97460.50
2023-05-20T03:28:23.177Z,97467.31
2023-05-20T03:30:49.800Z,97465.78
2023-05-20T03:33:16.833Z,97458.13
2023-05-20T03:35:43.495Z,97466.91
2023-05-20T03:38:10.179Z,97472.13
2023-05-20T03:40:36.968Z,97480.75
2023-05-20T03:43:03.685Z,97489.81
2023-05-20T03:45:30.376Z,97492.78
2023-05-20T03:47:57.116Z,97494.69
2023-05-20T03:50:23.811Z,97498.41
2023-05-20T03:52:50.540Z,97496.97
2023-05-20T03:55:17.222Z,97490.22
2023-05-20T03:57:43.920Z,97489.38
2023-05-20T04:00:12.257Z,97486.56
2023-05-20T04:02:39.104Z,97484.28
2023-05-20T04:05:08.740Z,97484.66
2023-05-20T04:07:36.883Z,97490.34
2023-05-20T04:10:05.142Z,97500.31
2023-05-20T04:12:32.610Z,97499.34
2023-05-20T04:15:02.474Z,97494.88
2023-05-20T04:17:30.328Z,97492.53
2023-05-20T04:20:00.108Z,97494.78
2023-05-20T04:22:27.500Z,97501.19
2023-05-20T04:24:54.385Z,97504.84
2023-05-20T04:27:21.742Z,97499.06
2023-05-20T04:29:48.567Z,97501.47
2023-05-20T04:32:18.916Z,97493.09
2023-05-20T04:34:48.868Z,97496.94
2023-05-20T04:37:16.194Z,97502.41
2023-05-20T04:39:43.762Z,97505.94
2023-05-20T04:42:10.859Z,97491.53
2023-05-20T04:44:38.096Z,97506.78
2023-05-20T04:47:04.835Z,97495.84
2023-05-20T04:49:31.622Z,97498.44
2023-05-20T04:51:58.733Z,97480.72
2023-05-20T04:54:25.535Z,97496.53
2023-05-20T04:56:52.309Z,97497.31
2023-05-20T04:59:19.012Z,97497.13
2023-05-20T05:01:45.647Z,97502.94
2023-05-20T05:04:12.367Z,97500.31
2023-05-20T05:06:39.063Z,97505.16
2023-05-20T05:09:05.807Z,97502.22
2023-05-20T05:11:32.580Z,97488.47
2023-05-20T05:13:59.259Z,97499.03
2023-05-20T05:16:26.090Z,97493.13
2023-05-20T05:18:52.974Z,97490.47
2023-05-20T05:21:19.987Z,97501.31
2023-05-20T05:23:46.640Z,97489.13
2023-05-20T05:26:13.243Z,97494.75
2023-05-20T05:28:42.314Z,97487.09
2023-05-20T05:31:09.439Z,97484.78
2023-05-20T05:33:36.179Z,97492.63
2023-05-20T05:36:03.085Z,97487.00
2023-05-20T05:38:29.767Z,97494.81
2023-05-20T05:40:56.513Z,97493.66
2023-05-20T05:43:23.241Z,97498.44
2023-05-20T05:45:49.869Z,97494.41
2023-05-20T05:48:16.583Z,97492.66
2023-05-20T05:50:46.913Z,97484.09
2023-05-20T05:53:13.573Z,97482.22
2023-05-20T05:55:40.359Z,97481.66
2023-05-20T05:58:07.101Z,97480.50
2023-05-20T06:00:33.927Z,97491.44
2023-05-20T06:03:00.928Z,97479.88
2023-05-20T06:05:29.325Z,97485.19
2023-05-20T06:07:58.101Z,97471.34
2023-05-20T06:10:24.904Z,97476.03
2023-05-20T06:12:51.515Z,97482.41
2023-05-20T06:15:18.267Z,97468.13
2023-05-20T06:17:45.009Z,97471.25
2023-05-20T06:20:12.171Z,97471.47
2023-05-20T06:22:38.726Z,97465.19
2023-05-20T06:25:06.398Z,97468.66
2023-05-20T06:27:33.438Z,97474.13
2023-05-20T06:30:00.336Z,97468.69
2023-05-20T06:32:27.801Z,97464.47
2023-05-20T06:34:54.471Z,97461.88
2023-05-20T06:37:24.496Z,97457.06
2023-05-20T06:39:54.096Z,97451.13
2023-05-20T06:42:21.632Z,97438.88
2023-05-20T06:44:48.386Z,97438.97
2023-05-20T06:47:16.840Z,97425.34
2023-05-20T06:49:47.406Z,97426.03
2023-05-20T06:52:14.625Z,97428.00
2023-05-20T06:54:41.862Z,97408.53
2023-05-20T06:57:09.107Z,97412.31
2023-05-20T06:59:38.986Z,97420.66
2023-05-20T07:02:06.038Z,97412.31
2023-05-20T07:04:32.665Z,97411.34
2023-05-20T07:06:59.368Z,97400.28
2023-05-20T07:09:26.075Z,97389.78
2023-05-20T07:11:52.691Z,97397.78
2023-05-20T07:14:33.336Z,97383.63
2023-05-20T07:16:59.981Z,97386.34
2023-05-20T07:19:27.913Z,97386.25
2023-05-20T07:21:54.626Z,97382.53
2023-05-20T07:24:21.255Z,97385.06
2023-05-20T07:26:47.980Z,97380.53
2023-05-20T07:29:14.606Z,97376.81
2023-05-20T07:31:41.295Z,97353.28
2023-05-20T07:34:08.005Z,97371.28
2023-05-20T07:36:34.711Z,97357.28
2023-05-20T07:39:03.474Z,97365.72
2023-05-20T07:41:32.077Z,97359.84
2023-05-20T07:43:58.791Z,97354.56
2023-05-20T07:46:25.615Z,97346.03
2023-05-20T07:48:52.366Z,97329.03
2023-05-20T07:51:19.279Z,97328.53
2023-05-20T07:53:45.962Z,97321.72
2023-05-20T07:56:12.620Z,97326.56
2023-05-20T07:58:41.832Z,97323.97
2023-05-20T08:01:09.499Z,97310.19
2023-05-20T08:03:37.034Z,97302.94
2023-05-20T08:06:04.053Z,97293.28
2023-05-20T08:08:30.897Z,97290.50
2023-05-20T08:10:57.630Z,97282.13
2023-05-20T08:13:25.541Z,97275.81
2023-05-20T08:15:54.746Z,97276.34
2023-05-20T08:18:21.468Z,97269.66
2023-05-20T08:20:48.231Z,97277.19
2023-05-20T08:23:15.290Z,97270.88
2023-05-20T08:25:41.902Z,97271.38
2023-05-20T08:28:08.690Z,97268.28
2023-05-20T08:30:35.372Z,97262.63
2023-05-20T08:33:02.547Z,97258.53
2023-05-20T08:35:29.340Z,97247.72
2023-05-20T08:37:55.905Z,97250.06
2023-05-20T08:40:22.756Z,97255.16
2023-05-20T08:42:53.015Z,97246.66
2023-05-20T08:45:27.783Z,97243.91
2023-05-20T08:47:55.052Z,97223.72
2023-05-20T08:50:22.259Z,97226.78
2023-05-20T08:52:51.834Z,97225.81
2023-05-20T08:55:27.041Z,97223.53
2023-05-20T08:57:55.095Z,97225.94
2023-05-20T09:00:27.337Z,97221.97
2023-05-20T09:02:54.932Z,97208.06
2023-05-20T09:05:22.901Z,97207.19
2023-05-20T09:07:49.809Z,97210.75
2023-05-20T09:10:16.834Z,97204.31
2023-05-20T09:12:43.813Z,97172.97
2023-05-20T09:15:10.777Z,97197.25
2023-05-20T09:17:38.567Z,97196.66
2023-05-20T09:20:10.934Z,97189.69
2023-05-20T09:22:39.481Z,97176.78
2023-05-20T09:25:06.770Z,97183.03
2023-05-20T09:27:34.144Z,97166.34
2023-05-20T09:30:01.139Z,97172.00
2023-05-20T09:32:29.107Z,97149.88
2023-05-20T09:34:55.918Z,97153.66
2023-05-20T09:37:24.622Z,97128.53
2023-05-20T09:39:58.175Z,97102.44
2023-05-20T09:42:29.091Z,97100.41
2023-05-20T09:44:58.980Z,97099.19
2023-05-20T09:47:27.155Z,97089.78
2023-05-20T09:49:54.133Z,97088.28
2023-05-20T09:52:21.612Z,97086.41
2023-05-20T09:54:49.769Z,97081.25
2023-05-20T09:57:16.491Z,97063.38
2023-05-20T09:59:44.377Z,97068.41
2023-05-20T10:02:11.208Z,97064.75
2023-05-20T10:04:43.320Z,97066.22
2023-05-20T10:07:20.917Z,97054.47
2023-05-20T10:10:23.808Z,97069.88
2023-05-20T10:13:04.667Z,97063.81
2023-05-20T10:15:45.973Z,97061.00
2023-05-20T10:18:31.080Z,97045.84
2023-05-20T10:20:57.782Z,97055.25
2023-05-20T10:23:31.619Z,97040.84
2023-05-20T10:25:58.956Z,97028.56
2023-05-20T10:28:38.621Z,97031.81
2023-05-20T10:31:24.347Z,97028.84
2023-05-20T10:33:53.606Z,97021.63
2023-05-20T10:36:27.768Z,97025.28
2023-05-20T10:38:56.660Z,97025.31
2023-05-20T10:41:28.310Z,96998.81
2023-05-20T10:44:05.664Z,97001.50
2023-05-20T10:46:46.403Z,97009.09
2023-05-20T10:49:23.274Z,97022.00
2023-05-20T10:51:52.189Z,97018.06
2023-05-20T10:54:18.902Z,97004.25
2023-05-20T10:56:53.741Z,97018.16
2023-05-20T10:59:21.934Z,97012.06
2023-05-20T11:01:49.162Z,97009.38
2023-05-20T11:04:17.462Z,97023.00
2023-05-20T11:06:54.439Z,97049.69
2023-05-20T11:25:20.191Z,97050.13
2023-05-20T11:27:47.187Z,97055.38
2023-05-20T11:30:18.625Z,97069.00
2023-05-20T11:32:56.490Z,97056.41
2023-05-20T11:35:24.380Z,97046.28
2023-05-20T11:38:05.010Z,97054.50
2023-05-20T11:40:42.526Z,97057.16
2023-05-20T11:43:14.800Z,97044.34
2023-05-20T11:45:43.468Z,97061.09
2023-05-20T11:48:12.132Z,97047.88
2023-05-20T11:50:41.083Z,97053.97
2023-05-20T11:53:09.950Z,97055.50
2023-05-20T11:55:48.973Z,97055.13
2023-05-20T11:58:20.265Z,97043.63
2023-05-20T12:00:51.708Z,97031.56
2023-05-20T12:03:22.415Z,97034.34
2023-05-20T12:05:51.308Z,97029.84
2023-05-20T12:08:18.086Z,97023.38
2023-05-20T12:10:47.698Z,97024.13
2023-05-20T12:13:14.603Z,97006.53
2023-05-20T12:15:41.365Z,97015.03
2023-05-20T12:18:08.418Z,97010.09
2023-05-20T12:20:36.596Z,97011.91
2023-05-20T12:23:04.191Z,97026.41
2023-05-20T12:25:30.848Z,97004.06
2023-05-20T12:27:59.600Z,97006.97
2023-05-20T12:30:26.351Z,96996.06
2023-05-20T12:32:53.377Z,96992.09
2023-05-20T12:35:41.397Z,96994.75
2023-05-20T12:38:08.703Z,96990.47
2023-05-20T12:40:36.630Z,96992.13
2023-05-20T12:43:04.837Z,96984.38
2023-05-20T12:45:31.753Z,96968.94
2023-05-20T12:47:58.986Z,96983.72
2023-05-20T12:50:26.123Z,96980.63
2023-05-20T12:52:53.256Z,96972.03
2023-05-20T12:55:20.011Z,96969.72
2023-05-20T12:57:47.634Z,96955.28
2023-05-20T13:00:15.123Z,96966.44
2023-05-20T13:02:42.994Z,96966.19
2023-05-20T13:05:10.682Z,96951.31
2023-05-20T13:07:37.893Z,96943.31
2023-05-20T13:10:04.816Z,96942.59
2023-05-20T13:12:31.599Z,96946.69
2023-05-20T13:14:58.364Z,96943.41
2023-05-20T13:17:25.092Z,96930.09
2023-05-20T13:19:51.996Z,96933.88
2023-05-20T13:22:18.728Z,96940.44
2023-05-20T13:24:45.427Z,96942.84
2023-05-20T13:27:12.153Z,96931.13
2023-05-20T13:29:38.846Z,96922.72
2023-05-20T13:32:05.862Z,96921.63
2023-05-20T13:34:32.567Z,96925.44
2023-05-20T13:36:59.302Z,96918.22
2023-05-20T13:39:25.936Z,96923.16
2023-05-20T13:41:55.048Z,96909.31
2023-05-20T13:44:21.906Z,96900.69
2023-05-20T13:46:48.628Z,96908.59
2023-05-20T13:49:15.679Z,96905.50
2023-05-20T13:51:42.392Z,96898.66
2023-05-20T13:54:09.026Z,96897.09
2023-05-20T13:56:35.833Z,96902.63
2023-05-20T13:59:02.498Z,96909.41
2023-05-20T14:01:30.964Z,96912.94
2023-05-20T14:03:57.701Z,96910.28
2023-05-20T14:06:24.880Z,96901.00
2023-05-20T14:08:54.501Z,96921.91
2023-05-20T14:11:21.901Z,96913.97
2023-05-20T14:13:48.673Z,96916.81
2023-05-20T14:16:15.864Z,96910.97
2023-05-20T14:18:42.686Z,96912.94
2023-05-20T14:21:09.284Z,96915.28
2023-05-20T14:23:36.020Z,96914.09
2023-05-20T14:26:02.705Z,96912.56
2023-05-20T14:28:29.318Z,96905.28
2023-05-20T14:30:55.974Z,96911.44
2023-05-20T14:33:22.664Z,96912.19
2023-05-20T14:35:49.297Z,96912.47
2023-05-20T14:38:16.933Z,96908.41
2023-05-20T14:40:43.755Z,96909.94
2023-05-20T14:43:10.681Z,96910.75
2023-05-20T14:45:40.491Z,96912.53
2023-05-20T14:48:07.221Z,96904.84
2023-05-20T14:50:34.219Z,96907.03
2023-05-20T14:53:00.965Z,96903.91
2023-05-20T14:55:27.617Z,96898.59
2023-05-20T14:57:54.357Z,96905.56
2023-05-20T15:00:21.132Z,96898.00
2023-05-20T15:02:47.895Z,96893.84
2023-05-20T15:05:14.867Z,96891.66
2023-05-20T15:07:41.987Z,96888.47
2023-05-20T15:10:08.938Z,96887.38
2023-05-20T15:12:35.570Z,96894.47
2023-05-20T15:15:02.472Z,96895.81
2023-05-20T15:17:29.162Z,96897.56
2023-05-20T15:19:55.880Z,96899.44
2023-05-20T15:22:22.722Z,96902.84
2023-05-20T15:24:49.486Z,96914.53
2023-05-20T15:27:16.353Z,96934.53
2023-05-20T15:29:43.192Z,96937.13
2023-05-20T15:32:10.037Z,96957.78
2023-05-20T15:34:36.766Z,96967.25
2023-05-20T15:37:03.538Z,96970.06
2023-05-20T15:39:30.211Z,96960.97
2023-05-20T15:41:59.459Z,96960.44
2023-05-20T15:44:26.587Z,96954.97
2023-05-20T15:46:53.150Z,96947.09
2023-05-20T15:49:19.820Z,96950.06
2023-05-20T15:51:55.775Z,96941.69
2023-05-20T15:54:29.436Z,96934.03
2023-05-20T15:56:56.337Z,96932.31
2023-05-20T15:59:23.023Z,96931.19
2023-05-20T16:01:49.744Z,96929.44
2023-05-20T16:04:16.574Z,96922.22
2023-05-20T16:06:43.488Z,96933.63
2023-05-20T16:09:10.210Z,96931.91
2023-05-20T16:11:36.885Z,96936.84
2023-05-20T16:14:03.536Z,96943.00
2023-05-20T16:16:30.303Z,96950.03
2023-05-20T16:18:57.145Z,96961.41
2023-05-20T16:21:25.096Z,96964.41
2023-05-20T16:23:52.935Z,96979.06
2023-05-20T16:26:19.731Z,96985.53
2023-05-20T16:28:47.190Z,96989.91
2023-05-20T16:31:13.987Z,96989.91
2023-05-20T16:33:41.003Z,96989.13
2023-05-20T16:36:07.850Z,96984.97
2023-05-20T16:38:34.928Z,96994.09
2023-05-20T16:41:01.986Z,96995.06
2023-05-20T16:43:28.720Z,96998.72
2023-05-20T16:45:55.547Z,97009.09
2023-05-20T16:48:22.378Z,96979.41
2023-05-20T16:50:49.107Z,96989.66
2023-05-20T16:53:16.689Z,96994.16
2023-05-20T16:55:43.476Z,96992.53
2023-05-20T16:58:10.230Z,96996.25
2023-05-20T17:00:36.992Z,96972.72
2023-05-20T17:03:04.390Z,96992.38
2023-05-20T17:05:31.467Z,97001.81
2023-05-20T17:08:00.394Z,97005.44
2023-05-20T17:10:28.681Z,96998.47
2023-05-20T17:12:55.664Z,97009.09
2023-05-20T17:15:23.731Z,97006.53
2023-05-20T17:17:51.129Z,97004.47
2023-05-20T17:20:17.775Z,97003.44
2023-05-20T17:22:44.571Z,97008.09
2023-05-20T17:25:11.507Z,97012.31
2023-05-20T17:27:38.212Z,97009.25
2023-05-20T17:30:05.678Z,97006.16
2023-05-20T17:32:32.457Z,96999.69
2023-05-20T17:34:59.240Z,97010.31
2023-05-20T17:37:26.166Z,97014.19
2023-05-20T17:39:52.800Z,97030.00
2023-05-20T17:42:19.677Z,97045.00
2023-05-20T17:44:46.610Z,97038.28
2023-05-20T17:47:13.489Z,97040.59
2023-05-20T17:49:40.686Z,97048.91
2023-05-20T17:52:07.763Z,97046.31
2023-05-20T17:54:34.779Z,97038.81
2023-05-20T17:57:01.681Z,97033.91
2023-05-20T17:59:28.476Z,97042.44
2023-05-20T18:01:55.182Z,97044.00
2023-05-20T18:04:22.720Z,97048.91
2023-05-20T18:06:49.484Z,97052.03
2023-05-20T18:09:16.696Z,97053.84
2023-05-20T18:11:43.380Z,97058.25
2023-05-20T18:14:10.143Z,97062.66
2023-05-20T18:16:36.932Z,97051.25
2023-05-20T18:19:03.832Z,97059.00
2023-05-20T18:21:30.485Z,97064.94
2023-05-20T18:23:57.261Z,97057.72
2023-05-20T18:26:24.134Z,97069.09
2023-05-20T18:28:51.104Z,97054.09
2023-05-20T18:31:17.871Z,97060.81
2023-05-20T18:33:44.562Z,97065.47
2023-05-20T18:36:11.355Z,97069.31
2023-05-20T18:38:40.565Z,97061.56
2023-05-20T18:41:08.171Z,97060.03
2023-05-20T18:43:34.954Z,97066.75
2023-05-20T18:46:01.793Z,97062.06
2023-05-20T18:48:28.691Z,97063.63
2023-05-20T18:50:56.443Z,97054.31
2023-05-20T18:53:23.778Z,97058.47
2023-05-20T18:55:50.587Z,97060.25
2023-05-20T18:58:17.370Z,97063.06
2023-05-20T19:00:44.168Z,97070.75
2023-05-20T19:03:11.591Z,97077.91
2023-05-20T19:05:38.693Z,97090.03
2023-05-20T19:08:05.916Z,97090.25
2023-05-20T19:10:33.190Z,97092.09
2023-05-20T19:13:00.158Z,97091.09
2023-05-20T19:15:26.877Z,97087.75
2023-05-20T19:17:53.821Z,97084.63
2023-05-20T19:20:20.655Z,97075.31
2023-05-20T19:22:47.656Z,97092.16
2023-05-20T19:25:14.415Z,97093.94
2023-05-20T19:27:41.417Z,97085.69
2023-05-20T19:30:10.723Z,97087.53
2023-05-20T19:32:38.506Z,97095.56
2023-05-20T19:35:06.334Z,97095.09
2023-05-20T19:37:33.321Z,97095.38
2023-05-20T19:40:00.216Z,97072.69
2023-05-20T19:42:26.973Z,97061.81
2023-05-20T19:44:54.229Z,97072.44
2023-05-20T19:47:21.622Z,97068.03
2023-05-20T19:49:48.466Z,97078.91
2023-05-20T19:52:15.624Z,97076.56
2023-05-20T19:54:43.014Z,97055.34
2023-05-20T19:57:10.170Z,97061.84
2023-05-20T19:59:38.248Z,97066.47
2023-05-20T20:02:06.253Z,97063.09
2023-05-20T20:04:33.044Z,97070.34
2023-05-20T20:07:00.279Z,97050.19
2023-05-20T20:09:27.206Z,97059.50
2023-05-20T20:11:54.315Z,97062.59
2023-05-20T20:14:21.692Z,97055.88
2023-05-20T20:16:49.565Z,97054.06
2023-05-20T20:19:18.787Z,97056.13
2023-05-20T20:21:46.501Z,97066.69
2023-05-20T20:24:13.161Z,97065.41
2023-05-20T20:26:39.971Z,97058.97
2023-05-20T20:29:07.576Z,97055.06
2023-05-20T20:31:34.241Z,97035.69
2023-05-20T20:34:01.037Z,97054.28
2023-05-20T20:36:31.849Z,97050.44
2023-05-20T20:38:59.580Z,97050.16
2023-05-20T20:41:26.247Z,97051.19
2023-05-20T20:43:53.286Z,97051.69
2023-05-20T20:46:20.169Z,97049.09
2023-05-20T20:48:47.041Z,97063.34
2023-05-20T20:51:15.202Z,97062.56
2023-05-20T20:53:42.217Z,97052.19
2023-05-20T20:56:10.053Z,97051.72
2023-05-20T20:58:40.262Z,97041.38
2023-05-20T21:01:07.235Z,97029.75
2023-05-20T21:03:40.687Z,97034.69
2023-05-20T21:06:08.141Z,97043.47
2023-05-20T21:08:34.934Z,97032.88
2023-05-20T21:11:01.701Z,97020.22
2023-05-20T21:13:31.511Z,97017.91
2023-05-20T21:15:58.145Z,97020.50
2023-05-20T21:18:24.973Z,97025.88
2023-05-20T21:20:53.339Z,97019.16
2023-05-20T21:23:21.575Z,97030.31
2023-05-20T21:25:48.949Z,97034.94
2023-05-20T21:28:16.082Z,97025.88
2023-05-20T21:30:42.871Z,97028.44
2023-05-20T21:33:09.633Z,97026.84
2023-05-20T21:35:36.657Z,97031.97
2023-05-20T21:38:03.532Z,97016.72
2023-05-20T21:40:30.254Z,97016.25
2023-05-20T21:42:57.017Z,97017.78
2023-05-20T21:45:23.658Z,97015.38
2023-05-20T21:47:50.469Z,97029.34
2023-05-20T21:50:17.242Z,97029.09
2023-05-20T21:52:43.904Z,97026.00
2023-05-20T21:55:10.706Z,97021.34
2023-05-20T21:57:37.597Z,97004.06
2023-05-20T22:00:11.257Z,96998.66
2023-05-20T22:02:38.199Z,96995.53
2023-05-20T22:05:05.289Z,96982.63
2023-05-20T22:07:33.162Z,96993.44
2023-05-20T22:10:00.864Z,96960.06
2023-05-20T22:12:27.820Z,96971.97
2023-05-20T22:14:54.566Z,96977.09
2023-05-20T22:17:21.840Z,96969.84
2023-05-20T22:19:48.479Z,96978.56
2023-05-20T22:22:15.457Z,96965.38
2023-05-20T22:24:42.141Z,96975.44
2023-05-20T22:27:08.797Z,96971.25
2023-05-20T22:29:35.739Z,96957.63
2023-05-20T22:32:02.595Z,96948.88
2023-05-20T22:34:29.344Z,96946.28
2023-05-20T22:36:55.990Z,96952.50
2023-05-20T22:39:22.659Z,96957.91
2023-05-20T22:41:49.441Z,96949.19
2023-05-20T22:44:16.157Z,96946.13
2023-05-20T22:46:42.849Z,96943.56
2023-05-20T22:49:10.430Z,96945.09
2023-05-20T22:51:38.736Z,96935.78
2023-05-20T22:54:06.979Z,96949.72
2023-05-20T22:56:34.321Z,96954.66
2023-05-20T22:59:01.484Z,96933.16
2023-05-20T23:01:28.300Z,96951.28
2023-05-20T23:03:55.145Z,96949.97
2023-05-20T23:06:22.668Z,96957.44
2023-05-20T23:08:49.698Z,96952.50
2023-05-20T23:11:16.586Z,96957.38
2023-05-20T23:13:43.375Z,96948.81
2023-05-20T23:16:10.331Z,96950.63
2023-05-20T23:18:37.278Z,96954.97
2023-05-20T23:21:04.301Z,96933.19
2023-05-20T23:23:32.188Z,96944.59
2023-05-20T23:25:59.961Z,96937.06
2023-05-20T23:28:26.910Z,96934.50
2023-05-20T23:30:54.538Z,96927.06
2023-05-20T23:33:25.056Z,96931.47
2023-05-20T23:35:52.771Z,96924.22
2023-05-20T23:38:19.457Z,96927.53
2023-05-20T23:40:46.078Z,96913.09
2023-05-20T23:43:12.924Z,96924.41
2023-05-20T23:45:39.613Z,96916.16
2023-05-20T23:48:09.874Z,96904.47
2023-05-20T23:50:36.817Z,96917.69
2023-05-20T23:53:03.750Z,96916.34
2023-05-20T23:55:30.357Z,96911.69
2023-05-20T23:57:56.980Z,96907.56
